createdAt,value
2017-08-03T00:00:22.531Z,23.59
2017-08-03T00:01:03.425Z,23.37
2017-08-03T00:01:44.321Z,23.41
2017-08-03T00:02:25.211Z,23.39
2017-08-03T00:03:06.111Z,23.48
2017-08-03T00:03:47.005Z,23.5
2017-08-03T00:04:27.891Z,23.51
2017-08-03T00:05:08.786Z,23.62
2017-08-03T00:05:49.714Z,23.69
2017-08-03T00:06:30.591Z,23.71
2017-08-03T00:07:11.491Z,23.76
2017-08-03T00:07:52.397Z,23.69
2017-08-03T00:08:33.300Z,23.74
2017-08-03T00:09:14.197Z,23.77
2017-08-03T00:09:55.083Z,23.81
2017-08-03T00:10:35.982Z,23.91
2017-08-03T00:11:16.877Z,23.91
2017-08-03T00:11:57.788Z,23.93
2017-08-03T00:12:38.678Z,23.86
2017-08-03T00:13:19.571Z,23.91
2017-08-03T00:14:00.459Z,23.93
2017-08-03T00:14:41.359Z,24.03
2017-08-03T00:15:22.255Z,24.02
2017-08-03T00:16:03.154Z,24.05
2017-08-03T00:16:44.041Z,24.02
2017-08-03T00:17:24.943Z,23.91
2017-08-03T00:18:05.834Z,23.98
2017-08-03T00:18:46.728Z,24.05
2017-08-03T00:19:27.630Z,24.06
2017-08-03T00:20:08.518Z,24.1
2017-08-03T00:20:49.463Z,23.99
2017-08-03T00:21:30.359Z,24.01
2017-08-03T00:22:11.260Z,24.13
2017-08-03T00:22:52.169Z,24.05
2017-08-03T00:23:33.048Z,24.08
2017-08-03T00:24:13.943Z,24.06
2017-08-03T00:24:54.846Z,24.05
2017-08-03T00:25:35.728Z,24.02
2017-08-03T00:26:16.635Z,24.05
2017-08-03T00:26:57.521Z,23.98
2017-08-03T00:27:38.413Z,24.02
2017-08-03T00:28:19.311Z,23.95
2017-08-03T00:29:00.205Z,23.92
2017-08-03T00:29:41.109Z,23.96
2017-08-03T00:30:21.995Z,23.92
2017-08-03T00:31:02.898Z,23.96
2017-08-03T00:31:43.806Z,24.01
2017-08-03T00:32:24.688Z,23.96
2017-08-03T00:33:05.595Z,23.95
2017-08-03T00:33:46.485Z,23.98
2017-08-03T00:34:27.384Z,23.92
2017-08-03T00:35:08.296Z,23.88
2017-08-03T00:35:49.185Z,23.88
2017-08-03T00:36:30.090Z,23.87
2017-08-03T00:37:11.005Z,23.91
2017-08-03T00:37:51.882Z,23.84
2017-08-03T00:38:32.813Z,23.84
2017-08-03T00:39:13.703Z,23.87
2017-08-03T00:39:54.598Z,23.86
2017-08-03T00:40:35.503Z,23.92
2017-08-03T00:41:16.429Z,23.87
2017-08-03T00:41:57.291Z,23.91
2017-08-03T00:42:38.191Z,23.83
2017-08-03T00:43:19.087Z,23.78
2017-08-03T00:43:59.988Z,23.8
2017-08-03T00:44:40.880Z,23.74
2017-08-03T00:45:21.784Z,23.69
2017-08-03T00:46:02.677Z,23.68
2017-08-03T00:46:43.585Z,23.69
2017-08-03T00:47:24.475Z,23.66
2017-08-03T00:48:05.368Z,23.54
2017-08-03T00:48:46.274Z,23.56
2017-08-03T00:49:27.172Z,23.47
2017-08-03T00:50:08.093Z,23.47
2017-08-03T00:50:49.005Z,23.43
2017-08-03T00:51:29.861Z,23.44
2017-08-03T00:52:10.752Z,23.48
2017-08-03T00:52:51.635Z,23.46
2017-08-03T00:53:32.533Z,23.43
2017-08-03T00:54:13.424Z,23.46
2017-08-03T00:54:54.306Z,23.43
2017-08-03T00:55:35.188Z,23.4
2017-08-03T00:56:16.101Z,23.4
2017-08-03T00:56:57.003Z,23.44
2017-08-03T00:57:37.893Z,23.4
2017-08-03T00:58:18.797Z,23.4
2017-08-03T00:58:59.689Z,23.41
2017-08-03T00:59:40.589Z,23.41
2017-08-03T01:00:21.479Z,23.56
2017-08-03T01:01:02.384Z,23.55
2017-08-03T01:01:43.309Z,23.55
2017-08-03T01:02:24.202Z,23.51
2017-08-03T01:03:05.125Z,23.55
2017-08-03T01:03:46.001Z,23.43
2017-08-03T01:04:26.906Z,23.41
2017-08-03T01:05:07.809Z,23.47
2017-08-03T01:05:48.696Z,23.54
2017-08-03T01:06:29.614Z,23.48
2017-08-03T01:07:10.489Z,23.48
2017-08-03T01:07:51.384Z,23.5
2017-08-03T01:08:32.284Z,23.4
2017-08-03T01:09:13.189Z,23.48
2017-08-03T01:09:54.087Z,23.43
2017-08-03T01:10:34.974Z,23.5
2017-08-03T01:11:15.843Z,23.4
2017-08-03T01:11:56.734Z,23.5
2017-08-03T01:12:37.652Z,23.43
2017-08-03T01:13:18.543Z,23.44
2017-08-03T01:13:59.447Z,23.46
2017-08-03T01:14:40.338Z,23.4
2017-08-03T01:15:21.236Z,23.54
2017-08-03T01:16:02.133Z,23.46
2017-08-03T01:16:43.032Z,23.46
2017-08-03T01:17:23.925Z,23.36
2017-08-03T01:18:04.807Z,23.25
2017-08-03T01:18:45.707Z,23.24
2017-08-03T01:19:26.622Z,23.31
2017-08-03T01:20:07.503Z,23.36
2017-08-03T01:20:48.412Z,23.43
2017-08-03T01:21:29.313Z,23.44
2017-08-03T01:22:10.207Z,23.36
2017-08-03T01:22:51.109Z,23.4
2017-08-03T01:23:31.998Z,23.39
2017-08-03T01:24:12.886Z,23.43
2017-08-03T01:24:53.787Z,23.43
2017-08-03T01:25:34.671Z,23.41
2017-08-03T01:26:15.579Z,23.41
2017-08-03T01:26:56.481Z,23.43
2017-08-03T01:27:37.378Z,23.44
2017-08-03T01:28:18.274Z,23.39
2017-08-03T01:28:59.168Z,23.4
2017-08-03T01:29:40.064Z,23.41
2017-08-03T01:30:20.956Z,23.32
2017-08-03T01:31:01.845Z,23.25
2017-08-03T01:31:42.751Z,23.28
2017-08-03T01:32:23.642Z,23.21
2017-08-03T01:33:04.536Z,23.13
2017-08-03T01:33:45.429Z,23.1
2017-08-03T01:34:26.325Z,23
2017-08-03T01:35:07.209Z,23.02
2017-08-03T01:35:48.110Z,23.03
2017-08-03T01:36:29.013Z,23.03
2017-08-03T01:37:09.916Z,22.98
2017-08-03T01:37:50.816Z,22.88
2017-08-03T01:38:31.717Z,22.88
2017-08-03T01:39:12.615Z,22.84
2017-08-03T01:39:53.514Z,22.83
2017-08-03T01:40:34.408Z,22.88
2017-08-03T01:41:15.312Z,22.83
2017-08-03T01:41:56.202Z,22.73
2017-08-03T01:42:37.105Z,22.7
2017-08-03T01:43:17.996Z,22.75
2017-08-03T01:43:58.898Z,22.8
2017-08-03T01:44:39.799Z,22.66
2017-08-03T01:45:20.688Z,22.72
2017-08-03T01:46:01.588Z,22.68
2017-08-03T01:46:42.483Z,22.75
2017-08-03T01:47:23.381Z,22.75
2017-08-03T01:48:04.273Z,22.66
2017-08-03T01:48:45.164Z,22.75
2017-08-03T01:49:26.065Z,22.66
2017-08-03T01:50:06.958Z,22.68
2017-08-03T01:50:47.882Z,22.69
2017-08-03T01:51:28.784Z,22.65
2017-08-03T01:52:09.680Z,22.66
2017-08-03T01:52:50.573Z,22.65
2017-08-03T01:53:31.469Z,22.7
2017-08-03T01:54:12.363Z,22.78
2017-08-03T01:54:53.259Z,22.7
2017-08-03T01:55:34.195Z,22.8
2017-08-03T01:56:15.102Z,22.76
2017-08-03T01:56:55.992Z,22.84
2017-08-03T01:57:36.898Z,22.78
2017-08-03T01:58:17.797Z,22.75
2017-08-03T01:58:58.697Z,22.7
2017-08-03T01:59:39.599Z,22.73
2017-08-03T02:00:20.495Z,22.76
2017-08-03T02:01:01.396Z,22.63
2017-08-03T02:01:42.288Z,22.7
2017-08-03T02:02:23.280Z,22.78
2017-08-03T02:03:04.104Z,22.76
2017-08-03T02:03:44.998Z,22.85
2017-08-03T02:04:25.897Z,22.87
2017-08-03T02:05:06.800Z,22.7
2017-08-03T02:05:47.689Z,22.57
2017-08-03T02:06:28.585Z,22.51
2017-08-03T02:07:09.478Z,22.41
2017-08-03T02:07:50.384Z,22.44
2017-08-03T02:08:31.273Z,22.47
2017-08-03T02:09:12.178Z,22.55
2017-08-03T02:09:53.079Z,22.69
2017-08-03T02:10:33.973Z,22.8
2017-08-03T02:11:14.862Z,22.73
2017-08-03T02:11:55.774Z,22.83
2017-08-03T02:12:36.645Z,22.57
2017-08-03T02:13:17.556Z,22.45
2017-08-03T02:13:58.460Z,22.48
2017-08-03T02:14:39.346Z,22.55
2017-08-03T02:15:20.253Z,22.65
2017-08-03T02:16:01.137Z,22.7
2017-08-03T02:16:42.023Z,22.8
2017-08-03T02:17:22.916Z,22.76
2017-08-03T02:18:03.817Z,22.73
2017-08-03T02:18:44.714Z,22.7
2017-08-03T02:19:25.605Z,22.62
2017-08-03T02:20:06.494Z,22.55
2017-08-03T02:20:47.369Z,22.54
2017-08-03T02:21:28.262Z,22.55
2017-08-03T02:22:09.165Z,22.41
2017-08-03T02:22:50.068Z,22.44
2017-08-03T02:23:30.960Z,22.53
2017-08-03T02:24:11.851Z,22.62
2017-08-03T02:24:52.742Z,22.68
2017-08-03T02:25:33.635Z,22.75
2017-08-03T02:26:14.518Z,22.72
2017-08-03T02:26:55.406Z,22.84
2017-08-03T02:27:36.310Z,22.9
2017-08-03T02:28:17.198Z,22.85
2017-08-03T02:28:58.110Z,22.85
2017-08-03T02:29:39.012Z,22.88
2017-08-03T02:30:19.903Z,22.9
2017-08-03T02:31:00.804Z,22.85
2017-08-03T02:31:41.685Z,22.94
2017-08-03T02:32:22.578Z,23.06
2017-08-03T02:33:03.478Z,23.02
2017-08-03T02:33:44.371Z,23.03
2017-08-03T02:34:25.265Z,23.08
2017-08-03T02:35:06.161Z,23.12
2017-08-03T02:35:47.057Z,23.02
2017-08-03T02:36:27.959Z,22.99
2017-08-03T02:37:08.857Z,22.98
2017-08-03T02:37:49.758Z,22.87
2017-08-03T02:38:30.656Z,23.09
2017-08-03T02:39:11.568Z,23.05
2017-08-03T02:39:52.432Z,22.98
2017-08-03T02:40:33.317Z,23.06
2017-08-03T02:41:14.226Z,23.13
2017-08-03T02:41:55.120Z,23.12
2017-08-03T02:42:36.018Z,23.12
2017-08-03T02:43:16.912Z,23.09
2017-08-03T02:43:57.826Z,23.06
2017-08-03T02:44:38.712Z,23.09
2017-08-03T02:45:19.610Z,23.13
2017-08-03T02:46:00.508Z,23.12
2017-08-03T02:46:41.417Z,23.03
2017-08-03T02:47:22.297Z,23.02
2017-08-03T02:48:03.189Z,23.02
2017-08-03T02:48:44.088Z,23.02
2017-08-03T02:49:24.980Z,22.93
2017-08-03T02:50:05.891Z,22.99
2017-08-03T02:50:46.785Z,22.99
2017-08-03T02:51:27.676Z,22.88
2017-08-03T02:52:08.573Z,22.88
2017-08-03T02:52:49.473Z,22.94
2017-08-03T02:53:30.366Z,22.94
2017-08-03T02:54:11.270Z,23.03
2017-08-03T02:54:52.156Z,23.03
2017-08-03T02:55:33.043Z,23.08
2017-08-03T02:56:13.946Z,23.05
2017-08-03T02:56:54.830Z,23.03
2017-08-03T02:57:35.720Z,23.13
2017-08-03T02:58:16.625Z,23.18
2017-08-03T02:58:57.512Z,23.1
2017-08-03T02:59:38.406Z,23.02
2017-08-03T03:00:19.291Z,23.03
2017-08-03T03:01:00.183Z,23
2017-08-03T03:01:41.077Z,23.02
2017-08-03T03:02:21.969Z,22.76
2017-08-03T03:03:02.860Z,22.91
2017-08-03T03:03:43.749Z,22.78
2017-08-03T03:04:24.646Z,22.94
2017-08-03T03:05:05.540Z,22.94
2017-08-03T03:05:46.440Z,22.87
2017-08-03T03:06:27.412Z,22.84
2017-08-03T03:07:08.292Z,22.94
2017-08-03T03:07:49.173Z,22.9
2017-08-03T03:08:30.081Z,22.76
2017-08-03T03:09:10.987Z,22.7
2017-08-03T03:09:51.903Z,22.73
2017-08-03T03:10:32.797Z,22.83
2017-08-03T03:11:13.690Z,22.85
2017-08-03T03:11:54.593Z,22.84
2017-08-03T03:12:35.452Z,22.75
2017-08-03T03:13:16.343Z,22.87
2017-08-03T03:13:57.249Z,22.81
2017-08-03T03:14:38.128Z,22.81
2017-08-03T03:15:19.042Z,22.7
2017-08-03T03:15:59.950Z,22.94
2017-08-03T03:16:40.856Z,22.96
2017-08-03T03:17:21.750Z,22.88
2017-08-03T03:18:02.650Z,22.76
2017-08-03T03:18:43.531Z,22.78
2017-08-03T03:19:24.425Z,22.81
2017-08-03T03:20:05.325Z,22.87
2017-08-03T03:20:46.227Z,22.85
2017-08-03T03:21:27.115Z,22.83
2017-08-03T03:22:08.007Z,22.87
2017-08-03T03:22:48.899Z,22.99
2017-08-03T03:23:29.795Z,23.05
2017-08-03T03:24:10.703Z,23.05
2017-08-03T03:24:51.608Z,22.99
2017-08-03T03:25:32.500Z,22.83
2017-08-03T03:26:13.392Z,22.66
2017-08-03T03:26:54.283Z,22.63
2017-08-03T03:27:35.174Z,22.54
2017-08-03T03:28:16.080Z,22.62
2017-08-03T03:28:56.964Z,22.63
2017-08-03T03:29:37.862Z,22.66
2017-08-03T03:30:18.754Z,22.6
2017-08-03T03:30:59.647Z,22.81
2017-08-03T03:31:40.549Z,22.98
2017-08-03T03:32:21.450Z,23
2017-08-03T03:33:02.341Z,23.05
2017-08-03T03:33:43.233Z,23
2017-08-03T03:34:24.128Z,22.94
2017-08-03T03:35:05.052Z,22.9
2017-08-03T03:35:45.944Z,22.99
2017-08-03T03:36:26.860Z,22.9
2017-08-03T03:37:07.761Z,22.84
2017-08-03T03:37:48.642Z,22.88
2017-08-03T03:38:29.532Z,23
2017-08-03T03:39:10.431Z,22.94
2017-08-03T03:39:51.320Z,22.85
2017-08-03T03:40:32.219Z,22.65
2017-08-03T03:41:13.123Z,22.94
2017-08-03T03:41:53.995Z,22.96
2017-08-03T03:42:34.891Z,23.1
2017-08-03T03:43:15.792Z,22.99
2017-08-03T03:43:56.677Z,22.88
2017-08-03T03:44:37.567Z,22.78
2017-08-03T03:45:18.465Z,22.73
2017-08-03T03:45:59.371Z,22.87
2017-08-03T03:46:40.280Z,22.75
2017-08-03T03:47:21.170Z,22.65
2017-08-03T03:48:02.065Z,22.78
2017-08-03T03:48:42.964Z,22.76
2017-08-03T03:49:23.861Z,22.85
2017-08-03T03:50:04.761Z,22.87
2017-08-03T03:50:45.643Z,22.8
2017-08-03T03:51:26.538Z,22.73
2017-08-03T03:52:07.450Z,22.88
2017-08-03T03:52:48.335Z,22.83
2017-08-03T03:53:29.222Z,22.87
2017-08-03T03:54:10.129Z,22.9
2017-08-03T03:54:51.001Z,22.9
2017-08-03T03:55:31.900Z,22.9
2017-08-03T03:56:12.800Z,23
2017-08-03T03:56:53.684Z,22.88
2017-08-03T03:57:34.585Z,22.94
2017-08-03T03:58:15.486Z,23.03
2017-08-03T03:58:56.376Z,23.02
2017-08-03T03:59:37.289Z,23
2017-08-03T04:00:18.180Z,23.02
2017-08-03T04:00:59.078Z,22.94
2017-08-03T04:01:39.969Z,22.84
2017-08-03T04:02:20.853Z,22.7
2017-08-03T04:03:01.743Z,22.73
2017-08-03T04:03:42.646Z,22.76
2017-08-03T04:04:23.555Z,22.83
2017-08-03T04:05:04.468Z,22.9
2017-08-03T04:05:45.349Z,22.99
2017-08-03T04:06:26.252Z,22.99
2017-08-03T04:07:07.150Z,22.96
2017-08-03T04:07:48.083Z,23
2017-08-03T04:08:28.971Z,22.98
2017-08-03T04:09:09.848Z,23.03
2017-08-03T04:09:50.761Z,23.1
2017-08-03T04:10:31.641Z,23.15
2017-08-03T04:11:12.527Z,23.15
2017-08-03T04:11:53.430Z,23.13
2017-08-03T04:12:34.320Z,23.12
2017-08-03T04:13:15.203Z,23.12
2017-08-03T04:13:56.110Z,23.17
2017-08-03T04:14:36.995Z,23.13
2017-08-03T04:15:17.888Z,23.12
2017-08-03T04:15:58.785Z,23.24
2017-08-03T04:16:39.672Z,23.25
2017-08-03T04:17:20.575Z,23.28
2017-08-03T04:18:01.469Z,23.39
2017-08-03T04:18:42.365Z,23.43
2017-08-03T04:19:23.267Z,23.46
2017-08-03T04:20:04.162Z,23.5
2017-08-03T04:20:45.054Z,23.43
2017-08-03T04:21:25.957Z,23.28
2017-08-03T04:22:06.847Z,23.37
2017-08-03T04:22:47.745Z,23.23
2017-08-03T04:23:28.636Z,23.25
2017-08-03T04:24:09.534Z,23.25
2017-08-03T04:24:50.431Z,23.1
2017-08-03T04:25:31.329Z,23.12
2017-08-03T04:26:12.302Z,23.2
2017-08-03T04:26:53.178Z,23.31
2017-08-03T04:27:34.086Z,23.34
2017-08-03T04:28:14.970Z,23.34
2017-08-03T04:28:55.878Z,23.47
2017-08-03T04:29:36.783Z,23.41
2017-08-03T04:30:17.664Z,23.34
2017-08-03T04:30:58.560Z,23.31
2017-08-03T04:31:39.463Z,23.23
2017-08-03T04:32:20.372Z,23.43
2017-08-03T04:33:01.273Z,23.48
2017-08-03T04:33:42.158Z,23.47
2017-08-03T04:34:23.069Z,23.44
2017-08-03T04:36:01.532Z,23.56
2017-08-03T04:36:42.443Z,23.56
2017-08-03T04:37:23.326Z,23.58
2017-08-03T04:38:04.230Z,23.55
2017-08-03T04:38:45.124Z,23.56
2017-08-03T04:39:26.014Z,23.61
2017-08-03T04:40:06.913Z,23.59
2017-08-03T04:40:47.814Z,23.48
2017-08-03T04:41:28.694Z,23.69
2017-08-03T04:42:09.588Z,23.69
2017-08-03T04:42:50.479Z,23.83
2017-08-03T04:43:31.379Z,23.91
2017-08-03T04:44:12.285Z,23.93
2017-08-03T04:44:53.188Z,23.93
2017-08-03T04:45:34.091Z,23.87
2017-08-03T04:46:14.984Z,23.84
2017-08-03T04:46:55.863Z,23.59
2017-08-03T04:47:36.775Z,23.59
2017-08-03T04:48:17.661Z,23.63
2017-08-03T04:48:58.546Z,23.59
2017-08-03T04:49:39.443Z,23.69
2017-08-03T04:50:20.338Z,23.76
2017-08-03T04:51:01.224Z,23.81
2017-08-03T04:51:42.113Z,23.91
2017-08-03T04:52:23.014Z,23.87
2017-08-03T04:53:03.899Z,23.88
2017-08-03T04:53:44.783Z,23.88
2017-08-03T04:54:25.679Z,23.91
2017-08-03T04:55:06.556Z,23.91
2017-08-03T04:55:47.463Z,23.88
2017-08-03T04:56:28.353Z,23.92
2017-08-03T04:57:09.224Z,23.87
2017-08-03T04:57:50.117Z,23.88
2017-08-03T04:58:31.028Z,23.87
2017-08-03T04:59:11.914Z,23.83
2017-08-03T04:59:52.818Z,23.77
2017-08-03T05:00:33.708Z,23.73
2017-08-03T05:01:14.615Z,23.69
2017-08-03T05:01:55.512Z,23.73
2017-08-03T05:02:36.457Z,23.66
2017-08-03T05:03:17.360Z,23.63
2017-08-03T05:03:58.296Z,23.61
2017-08-03T05:04:39.176Z,23.58
2017-08-03T05:05:20.072Z,23.55
2017-08-03T05:06:00.981Z,23.48
2017-08-03T05:06:41.889Z,23.43
2017-08-03T05:07:22.782Z,23.44
2017-08-03T05:08:03.676Z,23.32
2017-08-03T05:08:44.578Z,23.24
2017-08-03T05:09:25.476Z,23.21
2017-08-03T05:10:06.375Z,23.24
2017-08-03T05:10:47.266Z,23.18
2017-08-03T05:11:28.184Z,23.09
2017-08-03T05:12:09.070Z,23.2
2017-08-03T05:12:49.966Z,23.13
2017-08-03T05:13:30.849Z,23.03
2017-08-03T05:14:11.751Z,23.02
2017-08-03T05:14:52.644Z,23.1
2017-08-03T05:15:33.541Z,23.18
2017-08-03T05:16:14.452Z,23.13
2017-08-03T05:16:55.344Z,23.23
2017-08-03T05:17:36.228Z,23.28
2017-08-03T05:18:17.118Z,23.32
2017-08-03T05:18:58.023Z,23.4
2017-08-03T05:19:38.896Z,23.41
2017-08-03T05:20:19.806Z,23.5
2017-08-03T05:21:00.692Z,23.44
2017-08-03T05:21:41.580Z,23.46
2017-08-03T05:22:22.486Z,23.48
2017-08-03T05:23:03.363Z,23.51
2017-08-03T05:23:44.256Z,23.55
2017-08-03T05:24:25.166Z,23.47
2017-08-03T05:25:06.073Z,23.46
2017-08-03T05:25:46.950Z,23.36
2017-08-03T05:26:27.842Z,23.28
2017-08-03T05:27:08.737Z,23.27
2017-08-03T05:27:49.631Z,23.1
2017-08-03T05:28:30.515Z,23.15
2017-08-03T05:29:11.401Z,23.15
2017-08-03T05:29:52.310Z,23.15
2017-08-03T05:30:33.206Z,23.1
2017-08-03T05:31:14.100Z,23.17
2017-08-03T05:31:54.989Z,23.09
2017-08-03T05:32:35.882Z,23.17
2017-08-03T05:33:16.778Z,23.18
2017-08-03T05:33:57.672Z,23.13
2017-08-03T05:34:38.578Z,23.12
2017-08-03T05:35:19.476Z,23.13
2017-08-03T05:36:00.375Z,23.17
2017-08-03T05:36:41.244Z,23.13
2017-08-03T05:37:22.129Z,23.12
2017-08-03T05:38:03.020Z,23.17
2017-08-03T05:38:43.917Z,23.12
2017-08-03T05:39:24.811Z,23.15
2017-08-03T05:40:05.714Z,23.15
2017-08-03T05:40:46.600Z,23.1
2017-08-03T05:41:27.501Z,23.23
2017-08-03T05:42:08.391Z,23.23
2017-08-03T05:42:49.289Z,23.31
2017-08-03T05:43:30.185Z,23.31
2017-08-03T05:44:11.085Z,23.32
2017-08-03T05:44:51.981Z,23.28
2017-08-03T05:45:32.879Z,23.34
2017-08-03T05:46:13.767Z,23.36
2017-08-03T05:46:54.659Z,23.46
2017-08-03T05:48:22.799Z,23.48
2017-08-03T05:49:03.682Z,23.51
2017-08-03T05:49:44.578Z,23.62
2017-08-03T05:50:25.469Z,23.69
2017-08-03T05:51:06.360Z,23.86
2017-08-03T05:51:47.251Z,23.83
2017-08-03T05:52:28.142Z,23.99
2017-08-03T05:53:09.049Z,24.11
2017-08-03T05:53:49.941Z,24.13
2017-08-03T05:54:30.827Z,24.26
2017-08-03T05:55:11.712Z,24.33
2017-08-03T05:55:53.615Z,24.23
2017-08-03T05:57:11.587Z,24.23
2017-08-03T05:57:52.469Z,24.3
2017-08-03T05:58:33.361Z,24.14
2017-08-03T05:59:14.256Z,24.21
2017-08-03T05:59:55.150Z,24.26
2017-08-03T06:00:36.049Z,24.36
2017-08-03T06:01:16.942Z,24.35
2017-08-03T06:01:57.838Z,24.32
2017-08-03T06:02:38.736Z,24.39
2017-08-03T06:03:19.626Z,24.39
2017-08-03T06:04:00.524Z,24.38
2017-08-03T06:04:41.430Z,24.43
2017-08-03T06:05:22.342Z,24.39
2017-08-03T06:06:03.235Z,24.43
2017-08-03T06:06:44.123Z,24.47
2017-08-03T06:07:25.017Z,24.47
2017-08-03T06:08:05.976Z,24.53
2017-08-03T06:08:46.827Z,24.6
2017-08-03T06:09:27.720Z,24.7
2017-08-03T06:10:08.601Z,24.81
2017-08-03T06:10:49.500Z,24.88
2017-08-03T06:11:30.396Z,25.06
2017-08-03T06:12:11.318Z,25.1
2017-08-03T06:12:52.230Z,25.23
2017-08-03T06:13:33.129Z,25.18
2017-08-03T06:14:14.015Z,24.95
2017-08-03T06:14:54.914Z,24.92
2017-08-03T06:15:35.817Z,25.13
2017-08-03T06:16:16.705Z,25.25
2017-08-03T06:16:57.611Z,25.36
2017-08-03T06:17:38.501Z,25.35
2017-08-03T06:18:19.389Z,25.4
2017-08-03T06:19:00.289Z,25.47
2017-08-03T06:19:41.198Z,25.46
2017-08-03T06:20:22.109Z,25.46
2017-08-03T06:21:03.014Z,25.36
2017-08-03T06:21:43.901Z,25.32
2017-08-03T06:22:24.808Z,25.26
2017-08-03T06:23:05.721Z,25.32
2017-08-03T06:23:46.626Z,25.36
2017-08-03T06:24:27.513Z,25.54
2017-08-03T06:25:08.403Z,25.5
2017-08-03T06:25:49.320Z,25.48
2017-08-03T06:26:30.213Z,25.55
2017-08-03T06:27:11.110Z,25.72
2017-08-03T06:27:52.009Z,25.93
2017-08-03T06:28:32.906Z,25.83
2017-08-03T06:29:13.815Z,25.62
2017-08-03T06:29:54.711Z,25.63
2017-08-03T06:30:35.602Z,25.7
2017-08-03T06:31:16.501Z,25.81
2017-08-03T06:31:57.404Z,26.05
2017-08-03T06:32:38.326Z,26.15
2017-08-03T06:33:19.221Z,26.19
2017-08-03T06:34:00.125Z,26.26
2017-08-03T06:34:41.028Z,26.51
2017-08-03T06:35:21.918Z,26.53
2017-08-03T06:36:02.837Z,26.68
2017-08-03T06:36:43.727Z,26.83
2017-08-03T06:37:24.623Z,26.77
2017-08-03T06:38:05.530Z,26.93
2017-08-03T06:38:46.423Z,27.05
2017-08-03T06:39:27.309Z,27.15
2017-08-03T06:40:08.206Z,27.33
2017-08-03T06:40:49.148Z,27.27
2017-08-03T06:41:30.058Z,27.44
2017-08-03T06:42:10.955Z,27.52
2017-08-03T06:42:51.852Z,27.74
2017-08-03T06:43:32.761Z,27.77
2017-08-03T06:44:13.664Z,27.95
2017-08-03T06:44:54.624Z,27.98
2017-08-03T06:45:35.528Z,27.87
2017-08-03T06:46:16.425Z,27.86
2017-08-03T06:46:57.323Z,27.89
2017-08-03T06:47:38.229Z,27.96
2017-08-03T06:48:19.127Z,27.85
2017-08-03T06:49:00.031Z,27.85
2017-08-03T06:49:40.966Z,27.86
2017-08-03T06:50:21.838Z,27.85
2017-08-03T06:51:02.755Z,27.86
2017-08-03T06:51:43.657Z,27.85
2017-08-03T06:52:24.560Z,27.74
2017-08-03T06:53:05.456Z,27.7
2017-08-03T06:53:46.364Z,27.65
2017-08-03T06:54:27.254Z,27.63
2017-08-03T06:55:08.218Z,27.78
2017-08-03T06:55:49.102Z,27.67
2017-08-03T06:56:30.003Z,27.71
2017-08-03T06:57:10.889Z,27.35
2017-08-03T06:57:51.789Z,26.9
2017-08-03T06:58:32.683Z,26.99
2017-08-03T06:59:13.570Z,27.29
2017-08-03T06:59:54.501Z,27.47
2017-08-03T07:00:35.429Z,27.54
2017-08-03T07:01:16.282Z,27.1
2017-08-03T07:01:57.217Z,26.56
2017-08-03T07:02:38.120Z,26.65
2017-08-03T07:03:19.013Z,26.7
2017-08-03T07:03:59.932Z,27.02
2017-08-03T07:04:40.823Z,27.18
2017-08-03T07:05:21.721Z,27.32
2017-08-03T07:06:02.615Z,27.35
2017-08-03T07:06:43.503Z,27.35
2017-08-03T07:08:16.854Z,27.17
2017-08-03T07:08:57.750Z,27.05
2017-08-03T07:09:38.655Z,27.11
2017-08-03T07:10:19.540Z,27.07
2017-08-03T07:11:00.502Z,27.03
2017-08-03T07:11:41.361Z,27.14
2017-08-03T07:12:22.319Z,27.08
2017-08-03T07:13:03.277Z,27.05
2017-08-03T07:13:44.169Z,27.02
2017-08-03T07:14:25.090Z,27.03
2017-08-03T07:15:06.007Z,27.14
2017-08-03T07:15:46.920Z,27.14
2017-08-03T07:16:27.808Z,27.22
2017-08-03T07:17:08.685Z,27.15
2017-08-03T07:17:49.585Z,27.14
2017-08-03T07:18:30.475Z,27.25
2017-08-03T07:19:11.366Z,27.3
2017-08-03T07:19:52.269Z,27.4
2017-08-03T07:20:33.155Z,27.33
2017-08-03T07:21:14.060Z,27.26
2017-08-03T07:21:54.965Z,27.26
2017-08-03T07:22:35.846Z,27.12
2017-08-03T07:23:16.737Z,27.07
2017-08-03T07:23:57.646Z,27.05
2017-08-03T07:24:38.554Z,26.85
2017-08-03T07:25:19.494Z,26.77
2017-08-03T07:26:00.397Z,26.71
2017-08-03T07:26:41.298Z,26.7
2017-08-03T07:27:22.191Z,26.53
2017-08-03T07:28:03.108Z,26.53
2017-08-03T07:28:43.980Z,26.71
2017-08-03T07:29:24.868Z,26.7
2017-08-03T07:30:05.769Z,26.77
2017-08-03T07:30:46.706Z,26.77
2017-08-03T07:31:27.611Z,26.65
2017-08-03T07:32:08.504Z,26.68
2017-08-03T07:32:49.413Z,26.53
2017-08-03T07:33:30.298Z,26.75
2017-08-03T07:34:11.204Z,26.63
2017-08-03T07:34:52.104Z,26.71
2017-08-03T07:35:33.001Z,26.52
2017-08-03T07:36:13.903Z,26.52
2017-08-03T07:36:54.794Z,26.62
2017-08-03T07:37:35.707Z,26.6
2017-08-03T07:38:16.615Z,26.71
2017-08-03T07:38:57.516Z,26.77
2017-08-03T07:39:38.428Z,26.8
2017-08-03T07:40:19.336Z,26.77
2017-08-03T07:41:00.227Z,26.81
2017-08-03T07:41:41.126Z,26.84
2017-08-03T07:42:22.029Z,26.83
2017-08-03T07:43:02.948Z,26.84
2017-08-03T07:43:43.836Z,26.92
2017-08-03T07:44:24.740Z,26.97
2017-08-03T07:45:05.615Z,26.83
2017-08-03T07:45:46.562Z,26.66
2017-08-03T07:46:27.451Z,26.88
2017-08-03T07:47:08.381Z,26.97
2017-08-03T07:47:49.256Z,27.11
2017-08-03T07:48:30.132Z,27.25
2017-08-03T07:49:11.037Z,27.03
2017-08-03T07:49:51.929Z,26.97
2017-08-03T07:50:32.802Z,27.02
2017-08-03T07:51:13.712Z,26.96
2017-08-03T07:51:54.586Z,26.97
2017-08-03T07:52:35.452Z,26.85
2017-08-03T07:53:16.345Z,26.95
2017-08-03T07:53:57.240Z,26.97
2017-08-03T07:54:38.117Z,26.93
2017-08-03T07:55:18.993Z,26.77
2017-08-03T07:55:59.884Z,26.84
2017-08-03T07:56:40.800Z,26.83
2017-08-03T07:57:21.677Z,26.84
2017-08-03T07:58:02.559Z,26.78
2017-08-03T07:58:43.438Z,26.81
2017-08-03T07:59:24.317Z,26.7
2017-08-03T08:00:05.202Z,26.63
2017-08-03T08:00:46.083Z,26.53
2017-08-03T08:01:26.976Z,26.48
2017-08-03T08:02:07.852Z,26.33
2017-08-03T08:02:48.726Z,26.45
2017-08-03T08:03:29.610Z,26.43
2017-08-03T08:04:10.481Z,26.36
2017-08-03T08:04:51.387Z,26.38
2017-08-03T08:05:32.256Z,26.44
2017-08-03T08:06:13.135Z,26.44
2017-08-03T08:06:54.033Z,26.44
2017-08-03T08:07:34.927Z,26.56
2017-08-03T08:08:15.813Z,26.59
2017-08-03T08:08:56.691Z,26.55
2017-08-03T08:09:37.580Z,26.53
2017-08-03T08:10:18.460Z,26.4
2017-08-03T08:10:59.341Z,26.52
2017-08-03T08:11:40.231Z,26.23
2017-08-03T08:12:21.151Z,26.34
2017-08-03T08:13:02.035Z,26.47
2017-08-03T08:13:42.955Z,26.52
2017-08-03T08:14:23.897Z,26.47
2017-08-03T08:15:04.775Z,26.48
2017-08-03T08:15:45.661Z,26.58
2017-08-03T08:16:26.560Z,26.52
2017-08-03T08:17:07.444Z,26.55
2017-08-03T08:17:48.343Z,26.52
2017-08-03T08:18:29.211Z,26.51
2017-08-03T08:19:10.086Z,26.53
2017-08-03T08:19:50.974Z,26.44
2017-08-03T08:20:31.840Z,26.41
2017-08-03T08:21:12.735Z,26.45
2017-08-03T08:21:53.626Z,26.38
2017-08-03T08:22:34.508Z,26.33
2017-08-03T08:23:15.401Z,26.28
2017-08-03T08:23:56.290Z,26.38
2017-08-03T08:24:37.168Z,26.38
2017-08-03T08:25:18.045Z,26.34
2017-08-03T08:25:58.910Z,26.33
2017-08-03T08:26:39.809Z,26.43
2017-08-03T08:27:20.703Z,26.41
2017-08-03T08:28:01.596Z,26.51
2017-08-03T08:28:42.487Z,26.55
2017-08-03T08:29:23.370Z,26.7
2017-08-03T08:30:04.273Z,26.75
2017-08-03T08:30:45.142Z,26.88
2017-08-03T08:31:26.049Z,26.95
2017-08-03T08:32:06.935Z,26.83
2017-08-03T08:32:47.812Z,26.75
2017-08-03T08:33:28.711Z,26.77
2017-08-03T08:34:09.638Z,26.8
2017-08-03T08:34:50.571Z,26.75
2017-08-03T08:35:31.445Z,26.8
2017-08-03T08:36:12.342Z,26.65
2017-08-03T08:36:53.241Z,26.59
2017-08-03T08:37:34.127Z,26.55
2017-08-03T08:38:15.020Z,26.51
2017-08-03T08:38:55.912Z,26.4
2017-08-03T08:39:36.805Z,26.4
2017-08-03T08:40:17.691Z,26.51
2017-08-03T08:40:58.602Z,26.45
2017-08-03T08:41:39.502Z,26.44
2017-08-03T08:42:20.401Z,26.44
2017-08-03T08:43:01.286Z,26.43
2017-08-03T08:43:42.173Z,26.25
2017-08-03T08:44:23.076Z,26.13
2017-08-03T08:45:03.946Z,26
2017-08-03T08:45:44.826Z,26.07
2017-08-03T08:46:25.720Z,26.13
2017-08-03T08:47:06.612Z,26.06
2017-08-03T08:47:47.494Z,26.02
2017-08-03T08:48:28.371Z,26.13
2017-08-03T08:49:09.246Z,26.18
2017-08-03T08:49:50.131Z,26.16
2017-08-03T08:50:31.036Z,26.13
2017-08-03T08:51:11.916Z,26.26
2017-08-03T08:51:52.817Z,26.16
2017-08-03T08:52:33.703Z,26.38